Time;durP1;ratioP1;P1;durP2;ratioP2;P2;SDS_P1;SDS_P2;PMS_P1;PMS_P2;Temp;Humidity;BMP_temperature;BMP_pressure;BME280_temperature;BME280_humidity;BME280_pressure;Samples;Min_cycle;Max_cycle;Signal;HPM_P1;HPM_P2
2021/12/01 00:00:33;;;;;;;1.40;0.97;;;;;;;-0.43;100.00;99580.75;4973828;28;20061;-82
2021/12/01 00:03:00;;;;;;;3.43;1.10;;;;;;;-0.42;100.00;99587.69;4963501;28;20047;-83
2021/12/01 00:05:29;;;;;;;2.50;1.20;;;;;;;-0.40;100.00;99588.56;4954474;28;20404;-82
2021/12/01 00:08:02;;;;;;;1.03;0.63;;;;;;;-0.41;100.00;99573.88;4992523;28;20107;-82
2021/12/01 00:10:30;;;;;;;1.67;0.87;;;;;;;-0.41;100.00;99573.88;4975515;28;20575;-82
2021/12/01 00:12:57;;;;;;;3.43;1.60;;;;;;;-0.36;100.00;99573.03;4958840;28;20057;-85
2021/12/01 00:15:24;;;;;;;0.90;0.80;;;;;;;-0.38;100.00;99579.06;4959573;28;20130;-83
2021/12/01 00:17:50;;;;;;;3.37;1.40;;;;;;;-0.39;100.00;99578.22;4982501;28;20050;-83
2021/12/01 00:20:18;;;;;;;1.07;0.80;;;;;;;-0.39;100.00;99567.81;4997455;28;20124;-84
2021/12/01 00:22:46;;;;;;;1.50;1.20;;;;;;;-0.36;100.00;99572.16;4978157;28;20590;-84
2021/12/01 00:25:15;;;;;;;2.00;1.00;;;;;;;-0.34;100.00;99562.66;4953298;28;20054;-82
2021/12/01 00:27:46;;;;;;;1.90;1.10;;;;;;;-0.31;100.00;99567.88;4949399;28;20042;-82
2021/12/01 00:30:13;;;;;;;1.47;0.90;;;;;;;-0.34;100.00;99566.13;4957924;28;20049;-83
2021/12/01 00:32:40;;;;;;;1.67;1.00;;;;;;;-0.38;100.00;99563.50;4970241;28;20522;-84
2021/12/01 00:35:08;;;;;;;2.83;1.43;;;;;;;-0.26;100.00;99560.97;4971177;28;20041;-84
2021/12/01 00:37:36;;;;;;;1.57;1.03;;;;;;;-0.28;100.00;99560.09;5003578;28;20868;-84
2021/12/01 00:40:05;;;;;;;1.80;1.00;;;;;;;-0.28;100.00;99555.75;4968326;28;20107;-84
2021/12/01 00:42:32;;;;;;;0.70;0.70;;;;;;;-0.36;100.00;99557.44;4978109;28;20137;-82
2021/12/01 00:45:07;;;;;;;0.80;0.73;;;;;;;-0.37;100.00;99563.50;4968334;28;20105;-84
2021/12/01 00:47:43;;;;;;;2.70;0.90;;;;;;;-0.37;100.00;99579.06;4955607;28;20049;-83
2021/12/01 00:50:24;;;;;;;1.37;0.70;;;;;;;-0.35;100.00;99573.88;4987840;28;20038;-83
2021/12/01 00:52:52;;;;;;;1.60;0.93;;;;;;;-0.36;100.00;99574.75;4966855;28;20041;-84
2021/12/01 00:55:19;;;;;;;2.67;1.40;;;;;;;-0.40;100.00;99570.41;4965604;28;20042;-83
2021/12/01 00:57:47;;;;;;;2.70;1.10;;;;;;;-0.39;100.00;99553.97;4954042;28;20080;-84
2021/12/01 01:00:14;;;;;;;1.30;0.90;;;;;;;-0.43;100.00;99558.28;4971334;28;20042;-82
2021/12/01 01:02:43;;;;;;;2.00;1.00;;;;;;;-0.40;100.00;99557.44;4988503;28;20050;-84
2021/12/01 01:05:11;;;;;;;1.60;0.80;;;;;;;-0.40;100.00;99558.31;5012484;28;20069;-84
2021/12/01 01:07:38;;;;;;;1.43;1.00;;;;;;;-0.44;100.00;99551.34;4978279;28;20097;-84
2021/12/01 01:18:42;;;;;;;1.10;1.00;;;;;;;-0.44;100.00;99556.53;5000644;28;20038;-83
2021/12/01 01:21:10;;;;;;;1.67;1.10;;;;;;;-0.43;100.00;99562.59;4992581;28;20042;-84
2021/12/01 01:23:38;;;;;;;3.27;1.07;;;;;;;-0.45;100.00;99559.13;4971141;28;20877;-84
2021/12/01 01:26:07;;;;;;;2.73;1.00;;;;;;;-0.49;100.00;99560.84;4989316;23;20053;-80
2021/12/01 01:28:34;;;;;;;1.37;1.00;;;;;;;-0.51;100.00;99554.75;5008060;28;20056;-78
2021/12/01 01:31:02;;;;;;;0.97;0.83;;;;;;;-0.54;100.00;99551.28;4962917;28;20483;-79
2021/12/01 01:33:28;;;;;;;3.30;1.40;;;;;;;-0.47;100.00;99553.06;4987164;28;20046;-79
2021/12/01 01:35:55;;;;;;;3.07;1.00;;;;;;;-0.46;100.00;99558.25;4985634;28;20058;-78
2021/12/01 01:38:22;;;;;;;1.33;1.00;;;;;;;-0.50;100.00;99551.34;4981780;28;20045;-79
2021/12/01 01:40:49;;;;;;;3.23;1.00;;;;;;;-0.50;100.00;99543.56;4958111;28;20034;-79
2021/12/01 01:43:16;;;;;;;4.83;1.37;;;;;;;-0.49;100.00;99544.41;4980094;28;20109;-78
2021/12/01 01:45:44;;;;;;;1.83;1.00;;;;;;;-0.49;100.00;99529.72;4996767;28;20034;-79
2021/12/01 01:48:13;;;;;;;1.50;1.00;;;;;;;-0.50;100.00;99525.38;4949837;28;20100;-79
2021/12/01 01:50:42;;;;;;;2.03;1.30;;;;;;;-0.49;100.00;99521.94;4978540;28;20458;-79
2021/12/01 01:53:17;;;;;;;1.43;1.10;;;;;;;-0.48;100.00;99515.00;4962648;28;20443;-79
2021/12/01 01:55:47;;;;;;;2.23;1.00;;;;;;;-0.51;100.00;99507.19;4979396;28;20064;-79
2021/12/01 01:58:14;;;;;;;1.50;0.80;;;;;;;-0.53;100.00;99507.19;4960285;28;20054;-79
2021/12/01 02:00:51;;;;;;;2.23;1.10;;;;;;;-0.56;100.00;99499.41;4963777;28;20089;-79
2021/12/01 02:03:20;;;;;;;1.93;1.00;;;;;;;-0.60;100.00;99490.72;4972904;28;20066;-79
2021/12/01 02:05:48;;;;;;;1.67;1.00;;;;;;;-0.58;100.00;99477.78;4980917;28;20049;-79
2021/12/01 02:08:28;;;;;;;1.23;0.97;;;;;;;-0.61;100.00;99477.75;4958357;28;20042;-79
2021/12/01 02:10:57;;;;;;;3.33;1.60;;;;;;;-0.63;100.00;99469.09;4975929;28;20042;-79
2021/12/01 02:13:25;;;;;;;2.00;1.07;;;;;;;-0.59;100.00;99469.13;4956089;28;20043;-79
2021/12/01 02:15:53;;;;;;;3.83;1.17;;;;;;;-0.59;100.00;99456.16;4929980;28;20042;-80
2021/12/01 02:18:20;;;;;;;2.50;1.00;;;;;;;-0.65;100.00;99453.53;4963816;28;20606;-80
2021/12/01 02:21:15;;;;;;;3.27;0.90;;;;;;;-0.73;100.00;99452.63;4939189;28;20047;-80
2021/12/01 02:23:45;;;;;;;3.17;1.30;;;;;;;-0.68;100.00;99444.84;4937454;28;20046;-79
2021/12/01 02:26:14;;;;;;;1.20;0.90;;;;;;;-0.72;100.00;99438.78;4966750;28;20104;-79
2021/12/01 02:28:43;;;;;;;2.60;1.30;;;;;;;-0.78;100.00;99446.53;4953547;28;20476;-79
2021/12/01 02:31:10;;;;;;;3.57;1.10;;;;;;;-0.79;100.00;99433.56;4962532;28;20121;-80
2021/12/01 02:33:37;;;;;;;2.23;1.03;;;;;;;-0.82;100.00;99430.97;4972586;28;20034;-80
2021/12/01 02:36:06;;;;;;;2.73;1.17;;;;;;;-0.85;100.00;99430.06;4962787;28;20053;-80
2021/12/01 02:38:32;;;;;;;3.63;1.30;;;;;;;-0.83;100.00;99434.41;4957212;28;20566;-81
2021/12/01 02:40:59;;;;;;;5.77;1.30;;;;;;;-0.94;100.00;99427.41;4943271;28;20039;-81
2021/12/01 02:43:25;;;;;;;2.27;1.13;;;;;;;-0.97;100.00;99409.28;4955639;28;20121;-81
2021/12/01 02:45:53;;;;;;;2.03;1.10;;;;;;;-0.94;100.00;99411.88;4957677;28;20100;-81
2021/12/01 02:48:21;;;;;;;6.40;1.80;;;;;;;-0.89;100.00;99399.81;4980461;28;20042;-80
2021/12/01 02:50:49;;;;;;;2.10;1.30;;;;;;;-0.78;100.00;99384.28;4969705;28;20054;-79
2021/12/01 02:53:19;;;;;;;6.13;2.07;;;;;;;-0.84;100.00;99371.31;4980183;28;20050;-79
2021/12/01 02:55:57;;;;;;;3.37;1.20;;;;;;;-0.83;100.00;99367.00;4989034;28;20049;-79
2021/12/01 02:58:26;;;;;;;2.43;0.90;;;;;;;-0.86;100.00;99366.09;4991246;28;20050;-80
2021/12/01 03:00:56;;;;;;;3.50;1.60;;;;;;;-0.90;100.00;99364.38;4986155;28;20043;-80
2021/12/01 03:03:25;;;;;;;2.07;1.30;;;;;;;-0.90;100.00;99360.91;4973350;28;20053;-82
2021/12/01 03:05:52;;;;;;;3.90;1.77;;;;;;;-0.91;100.00;99360.06;4975939;28;20053;-81
2021/12/01 03:08:19;;;;;;;2.10;1.20;;;;;;;-0.99;100.00;99360.88;4979751;28;20038;-81
2021/12/01 03:10:53;;;;;;;3.07;1.40;;;;;;;-1.06;100.00;99353.94;4956951;28;20500;-80
2021/12/01 03:13:22;;;;;;;2.27;1.10;;;;;;;-1.06;100.00;99348.75;4981424;28;20079;-80
2021/12/01 03:15:48;;;;;;;4.20;1.50;;;;;;;-1.04;100.00;99347.00;4971904;28;20302;-79
2021/12/01 03:18:16;;;;;;;3.27;1.30;;;;;;;-1.04;100.00;99357.38;4945073;28;20117;-80
2021/12/01 03:20:46;;;;;;;2.13;1.43;;;;;;;-1.03;100.00;99344.44;4979320;28;20549;-80
2021/12/01 03:23:14;;;;;;;3.93;1.40;;;;;;;-1.02;100.00;99335.78;4973327;28;20043;-79
2021/12/01 03:25:41;;;;;;;3.80;1.47;;;;;;;-0.95;100.00;99342.75;4960648;28;20046;-79
2021/12/01 03:28:08;;;;;;;2.27;1.30;;;;;;;-0.96;100.00;99333.22;4957115;28;20051;-79
2021/12/01 03:30:37;;;;;;;4.03;1.30;;;;;;;-0.99;100.00;99332.38;4989633;28;20050;-80
2021/12/01 03:33:08;;;;;;;3.70;1.60;;;;;;;-0.96;100.00;99325.44;4961632;28;20093;-79
2021/12/01 03:35:37;;;;;;;3.63;1.50;;;;;;;-0.94;100.00;99318.53;4939274;28;20077;-79
2021/12/01 03:38:04;;;;;;;2.73;1.70;;;;;;;-0.87;100.00;99324.63;4975722;28;20043;-80
2021/12/01 03:40:31;;;;;;;3.37;1.47;;;;;;;-0.87;100.00;99322.91;4975643;28;20719;-79
2021/12/01 03:42:58;;;;;;;3.60;1.50;;;;;;;-0.82;100.00;99316.88;4959934;28;20503;-80
2021/12/01 03:45:25;;;;;;;3.43;1.47;;;;;;;-0.83;100.00;99303.06;4958923;28;20049;-80
2021/12/01 03:47:51;;;;;;;3.30;1.70;;;;;;;-0.76;100.00;99301.31;4961066;28;20500;-80
2021/12/01 03:50:18;;;;;;;4.07;1.57;;;;;;;-0.72;100.00;99301.34;4961705;28;20042;-80
2021/12/01 03:52:45;;;;;;;3.90;1.60;;;;;;;-0.69;100.00;99290.97;4964448;28;20038;-80
2021/12/01 03:55:12;;;;;;;3.33;1.80;;;;;;;-0.64;100.00;99280.63;4974369;28;20053;-80
2021/12/01 03:57:38;;;;;;;4.20;2.07;;;;;;;-0.59;100.00;99278.88;4952196;28;20105;-80
2021/12/01 04:00:09;;;;;;;5.23;1.70;;;;;;;-0.48;100.00;99278.94;4968746;28;20042;-80
2021/12/01 04:02:35;;;;;;;3.67;1.53;;;;;;;-0.46;100.00;99259.91;4974654;28;20109;-81
2021/12/01 04:05:03;;;;;;;5.10;1.57;;;;;;;-0.43;100.00;99262.47;4961386;28;20126;-81
2021/12/01 04:07:29;;;;;;;8.00;1.67;;;;;;;-0.35;100.00;99252.13;4953522;28;20069;-81
2021/12/01 04:09:56;;;;;;;4.40;1.90;;;;;;;-0.33;100.00;99253.88;4954183;28;20093;-81
2021/12/01 04:12:24;;;;;;;12.10;2.00;;;;;;;-0.29;100.00;99255.59;4970818;28;20090;-81
2021/12/01 04:14:51;;;;;;;9.13;1.90;;;;;;;-0.24;100.00;99255.59;4965908;28;20058;-81
2021/12/01 04:17:17;;;;;;;7.10;2.40;;;;;;;-0.22;100.00;99253.88;4951374;28;20051;-81
2021/12/01 04:19:45;;;;;;;4.87;2.37;;;;;;;-0.14;100.00;99248.69;4947033;28;20459;-82
2021/12/01 04:22:12;;;;;;;5.13;2.17;;;;;;;-0.11;100.00;99259.91;4953795;28;20066;-81
2021/12/01 04:24:38;;;;;;;3.63;1.60;;;;;;;-0.05;100.00;99253.88;4961435;28;20462;-82
2021/12/01 04:27:07;;;;;;;4.53;1.73;;;;;;;-0.07;100.00;99259.06;4956159;28;20038;-81
2021/12/01 04:29:34;;;;;;;8.00;2.20;;;;;;;0.03;100.00;99248.69;4977872;28;20098;-82
2021/12/01 04:32:01;;;;;;;10.10;2.60;;;;;;;0.02;100.00;99241.75;4962778;28;20046;-82
2021/12/01 04:34:27;;;;;;;6.87;1.90;;;;;;;0.04;100.00;99240.00;4963464;28;20050;-81
2021/12/01 04:36:54;;;;;;;6.57;1.83;;;;;;;0.09;100.00;99227.91;4957175;28;20035;-81
2021/12/01 04:39:21;;;;;;;8.00;3.10;;;;;;;0.10;100.00;99224.44;4967838;28;20046;-82
2021/12/01 04:41:52;;;;;;;5.00;2.10;;;;;;;0.22;100.00;99219.22;4960453;28;20448;-80
2021/12/01 04:44:21;;;;;;;11.30;2.33;;;;;;;0.28;100.00;99206.22;4964878;28;20042;-80
2021/12/01 04:46:49;;;;;;;7.83;2.20;;;;;;;0.32;100.00;99209.66;4957657;28;20045;-80
2021/12/01 04:49:18;;;;;;;6.73;2.00;;;;;;;0.31;100.00;99195.81;4975548;28;20050;-80
2021/12/01 04:51:47;;;;;;;4.93;1.80;;;;;;;0.34;100.00;99202.72;4976862;28;21652;-80
2021/12/01 04:54:14;;;;;;;7.53;3.07;;;;;;;0.37;100.00;99197.53;4972451;28;20030;-80
2021/12/01 04:56:43;;;;;;;7.57;2.47;;;;;;;0.38;100.00;99188.88;4976020;28;20050;-81
2021/12/01 04:59:10;;;;;;;6.93;2.43;;;;;;;0.42;100.00;99181.06;4950500;28;20053;-81
2021/12/01 05:01:37;;;;;;;10.33;2.60;;;;;;;0.49;100.00;99161.09;4976097;28;20054;-81
2021/12/01 05:04:04;;;;;;;11.60;2.93;;;;;;;0.54;100.00;99159.38;4953378;28;20483;-81
2021/12/01 05:06:31;;;;;;;4.83;2.40;;;;;;;0.53;100.00;99153.31;4955087;28;20054;-81
2021/12/01 05:08:58;;;;;;;6.30;2.17;;;;;;;0.52;100.00;99150.72;5001927;28;20121;-81
2021/12/01 05:11:25;;;;;;;6.80;1.83;;;;;;;0.57;100.00;99142.00;4969583;28;20092;-80
2021/12/01 05:14:08;;;;;;;5.57;2.40;;;;;;;0.56;100.00;99136.81;4968366;28;20047;-80
2021/12/01 05:16:37;;;;;;;6.50;2.10;;;;;;;0.62;100.00;99128.16;4953078;28;20412;-82
2021/12/01 05:19:05;;;;;;;7.00;2.70;;;;;;;0.70;100.00;99110.78;4969549;28;20547;-82
2021/12/01 05:21:32;;;;;;;10.07;3.30;;;;;;;0.83;100.00;99108.06;4962718;28;20057;-83
2021/12/01 05:24:00;;;;;;;9.37;3.00;;;;;;;0.78;100.00;99098.59;4947522;28;20047;-82
2021/12/01 05:26:27;;;;;;;8.03;2.50;;;;;;;0.80;100.00;99099.44;4962819;28;20097;-82
2021/12/01 05:28:54;;;;;;;6.90;3.40;;;;;;;0.82;100.00;99084.69;4942045;28;20051;-82
2021/12/01 05:31:20;;;;;;;7.33;2.73;;;;;;;0.84;100.00;99078.63;4951410;28;20381;-83
2021/12/01 05:33:47;;;;;;;6.00;2.13;;;;;;;0.80;100.00;99076.06;4987768;28;20101;-82
2021/12/01 05:36:15;;;;;;;9.83;2.60;;;;;;;0.82;100.00;99069.97;4984269;28;20057;-82
2021/12/01 05:38:42;;;;;;;10.57;2.33;;;;;;;0.82;100.00;99061.31;4974836;28;20121;-82
2021/12/01 05:41:09;;;;;;;10.10;2.30;;;;;;;0.86;100.00;99057.81;4958860;28;20046;-83
2021/12/01 05:43:36;;;;;;;7.17;2.70;;;;;;;0.81;100.00;99052.63;4956586;28;20050;-83
2021/12/01 05:46:02;;;;;;;9.43;3.17;;;;;;;0.83;100.00;99047.44;4938851;28;20431;-83
2021/12/01 05:48:30;;;;;;;12.23;3.03;;;;;;;0.88;100.00;99043.06;4960662;28;20050;-83
2021/12/01 05:50:56;;;;;;;7.53;2.80;;;;;;;0.88;100.00;99035.28;4966206;28;20329;-82
2021/12/01 05:53:23;;;;;;;13.23;4.40;;;;;;;0.87;100.00;99033.53;4940558;28;20070;-84
2021/12/01 05:55:51;;;;;;;7.17;2.57;;;;;;;0.90;100.00;99025.72;4955221;28;20511;-81
2021/12/01 05:58:17;;;;;;;7.90;2.90;;;;;;;0.94;100.00;99016.16;4989032;28;20057;-80
2021/12/01 06:00:44;;;;;;;8.47;3.40;;;;;;;0.96;100.00;99011.81;4978553;28;20487;-80
2021/12/01 06:03:11;;;;;;;7.07;3.30;;;;;;;0.99;100.00;99002.22;4972587;28;20080;-80
2021/12/01 06:05:39;;;;;;;13.27;5.30;;;;;;;1.07;100.00;98992.63;4955599;28;20110;-79
2021/12/01 06:08:06;;;;;;;9.03;4.10;;;;;;;1.19;100.00;98990.81;4959128;28;20449;-80
2021/12/01 06:10:33;;;;;;;11.87;5.07;;;;;;;1.19;100.00;98983.88;4956840;28;20125;-80
2021/12/01 06:13:00;;;;;;;23.90;14.73;;;;;;;1.21;100.00;98978.66;4985646;28;20051;-80
2021/12/01 06:15:29;;;;;;;31.00;16.40;;;;;;;1.15;100.00;98971.75;4960157;28;20053;-80
2021/12/01 06:17:58;;;;;;;11.30;5.67;;;;;;;1.16;100.00;98972.63;4972555;28;20097;-80
2021/12/01 06:20:25;;;;;;;29.40;17.23;;;;;;;1.23;100.00;98972.53;4986757;28;20050;-80
2021/12/01 06:22:52;;;;;;;17.57;7.40;;;;;;;1.25;100.00;98962.97;4956807;28;20062;-80
2021/12/01 06:25:19;;;;;;;10.43;6.00;;;;;;;1.25;100.00;98956.91;4952798;28;20049;-79
2021/12/01 06:27:51;;;;;;;7.37;3.87;;;;;;;1.27;100.00;98958.66;4960563;28;20050;-80
2021/12/01 06:30:17;;;;;;;12.77;4.63;;;;;;;1.38;100.00;98948.97;4958236;28;20034;-80
2021/12/01 06:32:44;;;;;;;11.63;4.60;;;;;;;1.36;100.00;98949.88;4974470;28;20058;-79
2021/12/01 06:35:11;;;;;;;10.57;3.80;;;;;;;1.41;100.00;98938.53;4957893;28;20046;-80
2021/12/01 06:37:37;;;;;;;5.90;4.00;;;;;;;1.44;100.00;98929.84;4970797;28;20051;-81
2021/12/01 06:40:05;;;;;;;12.67;4.60;;;;;;;1.40;100.00;98923.78;4964108;28;20488;-80
2021/12/01 06:42:33;;;;;;;10.00;4.00;;;;;;;1.45;100.00;98922.91;4993910;28;20050;-80
2021/12/01 06:45:02;;;;;;;8.87;4.37;;;;;;;1.40;100.00;98916.00;4969308;28;20046;-79
2021/12/01 06:47:29;;;;;;;13.37;5.37;;;;;;;1.41;100.00;98903.84;4955926;28;20061;-80
2021/12/01 06:49:56;;;;;;;9.77;4.53;;;;;;;1.39;100.00;98900.41;4969275;28;20076;-79
2021/12/01 06:52:23;;;;;;;7.83;4.20;;;;;;;1.45;100.00;98891.66;4946357;28;20393;-78
2021/12/01 06:54:50;;;;;;;8.23;5.13;;;;;;;1.51;100.00;98892.44;4983285;28;20061;-81
2021/12/01 06:57:17;;;;;;;7.40;5.10;;;;;;;1.57;100.00;98879.34;4963618;28;20041;-80
2021/12/01 06:59:43;;;;;;;7.57;3.83;;;;;;;1.55;100.00;98878.50;4996165;28;20566;-80
2021/12/01 07:02:10;;;;;;;7.53;4.10;;;;;;;1.56;100.00;98866.38;4976573;28;20046;-82
2021/12/01 07:04:38;;;;;;;13.50;7.77;;;;;;;1.64;100.00;98846.31;4966329;28;20114;-82
2021/12/01 07:07:05;;;;;;;10.77;4.77;;;;;;;1.64;100.00;98835.88;4988234;28;20039;-81
2021/12/01 07:09:32;;;;;;;13.57;5.10;;;;;;;1.64;100.00;98831.53;4971671;28;20133;-80
2021/12/01 07:11:58;;;;;;;10.50;4.30;;;;;;;1.66;100.00;98824.56;5001576;28;20035;-81
2021/12/01 07:14:25;;;;;;;10.00;5.93;;;;;;;1.67;100.00;98820.22;4986634;28;20185;-81
2021/12/01 07:16:52;;;;;;;6.40;3.90;;;;;;;1.74;100.00;98818.38;4973679;28;20467;-82
2021/12/01 07:19:19;;;;;;;9.77;4.17;;;;;;;1.66;100.00;98814.16;4977909;28;20038;-82
2021/12/01 07:21:46;;;;;;;9.27;5.57;;;;;;;1.73;100.00;98807.13;4954901;28;20109;-81
2021/12/01 07:24:16;;;;;;;5.97;4.30;;;;;;;1.81;100.00;98799.19;4987367;28;20066;-81
2021/12/01 07:26:43;;;;;;;6.63;4.10;;;;;;;1.82;100.00;98795.72;4998418;28;20050;-81
2021/12/01 07:29:10;;;;;;;7.40;3.80;;;;;;;1.87;100.00;98788.69;4968836;28;20070;-82
2021/12/01 07:31:37;;;;;;;6.87;3.10;;;;;;;1.93;100.00;98776.44;4950395;28;20775;-82
2021/12/01 07:34:04;;;;;;;5.47;2.90;;;;;;;1.88;100.00;98766.97;4986035;28;20045;-81
2021/12/01 07:36:30;;;;;;;6.57;3.00;;;;;;;1.91;100.00;98766.91;4969294;28;20057;-81
2021/12/01 07:38:59;;;;;;;5.57;3.10;;;;;;;1.93;100.00;98768.63;4975222;28;20046;-82
2021/12/01 07:41:26;;;;;;;7.67;4.20;;;;;;;1.98;100.00;98761.59;4962122;28;20476;-80
2021/12/01 07:43:53;;;;;;;6.47;3.23;;;;;;;1.98;100.00;98750.31;4968854;28;20046;-81
2021/12/01 07:46:21;;;;;;;6.07;2.53;;;;;;;2.06;100.00;98743.25;4964450;28;20046;-81
2021/12/01 07:48:48;;;;;;;5.53;3.07;;;;;;;2.14;100.00;98741.38;4961186;28;20081;-81
2021/12/01 07:51:15;;;;;;;6.13;3.47;;;;;;;2.15;100.00;98726.59;4965578;28;20094;-81
2021/12/01 07:53:43;;;;;;;7.00;2.80;;;;;;;2.13;100.00;98712.75;4957326;28;20070;-81
2021/12/01 07:56:12;;;;;;;5.30;3.50;;;;;;;2.22;100.00;98707.38;4944766;28;20495;-81
2021/12/01 07:58:40;;;;;;;3.93;2.47;;;;;;;2.28;100.00;98703.78;4978830;28;20071;-83
2021/12/01 08:01:08;;;;;;;4.80;2.43;;;;;;;2.36;100.00;98696.69;4962607;28;20880;-82
2021/12/01 08:03:35;;;;;;;5.97;2.23;;;;;;;2.37;100.00;98688.84;4944650;28;20042;-82
2021/12/01 08:06:02;;;;;;;4.37;2.10;;;;;;;2.37;100.00;98690.59;4963464;28;20070;-81
2021/12/01 08:08:29;;;;;;;3.20;1.83;;;;;;;2.32;100.00;98685.47;4966680;28;20137;-82
2021/12/01 08:10:56;;;;;;;4.70;2.27;;;;;;;2.31;100.00;98677.66;4981834;28;20042;-82
2021/12/01 08:13:23;;;;;;;5.80;2.20;;;;;;;2.36;100.00;98662.81;4950742;28;20069;-82
2021/12/01 08:15:51;;;;;;;3.47;2.00;;;;;;;2.47;100.00;98661.72;4974254;28;20105;-81
2021/12/01 08:18:18;;;;;;;3.03;1.90;;;;;;;2.52;100.00;98657.28;4958372;28;20097;-82
2021/12/01 08:20:45;;;;;;;3.20;1.93;;;;;;;2.54;100.00;98650.28;4964569;28;20089;-81
2021/12/01 08:23:12;;;;;;;3.17;1.80;;;;;;;2.54;100.00;98639.84;4947091;28;20049;-81
2021/12/01 08:25:39;;;;;;;6.13;3.73;;;;;;;2.58;100.00;98638.03;4975560;28;20042;-81
2021/12/01 08:28:06;;;;;;;3.70;2.00;;;;;;;2.60;100.00;98638.00;4963691;28;20061;-82
2021/12/01 08:30:33;;;;;;;2.93;2.10;;;;;;;2.63;100.00;98636.19;4937839;28;20038;-81
2021/12/01 08:33:00;;;;;;;3.63;1.93;;;;;;;2.65;100.00;98631.81;4961384;28;20500;-80
2021/12/01 08:35:27;;;;;;;2.90;2.10;;;;;;;2.78;100.00;98619.38;4968260;28;20047;-81
2021/12/01 08:37:55;;;;;;;4.57;2.63;;;;;;;2.80;100.00;98609.75;4982296;28;20130;-81
2021/12/01 08:40:21;;;;;;;4.17;2.57;;;;;;;2.80;100.00;98613.22;4964981;28;20042;-80
2021/12/01 08:42:49;;;;;;;4.20;2.40;;;;;;;2.83;100.00;98612.28;4974612;28;20050;-81
2021/12/01 08:45:17;;;;;;;4.93;2.70;;;;;;;2.85;100.00;98609.63;4960514;28;20410;-80
2021/12/01 08:47:44;;;;;;;7.73;2.67;;;;;;;2.89;100.00;98598.25;4980030;28;20046;-81
2021/12/01 08:50:11;;;;;;;4.03;2.57;;;;;;;2.97;100.00;98605.03;4961499;28;20042;-81
2021/12/01 08:52:39;;;;;;;5.43;2.43;;;;;;;2.95;100.00;98598.13;4942086;28;20077;-81
2021/12/01 08:55:06;;;;;;;3.17;2.57;;;;;;;2.99;100.00;98586.72;4959332;28;20042;-81
2021/12/01 08:57:33;;;;;;;4.37;2.80;;;;;;;3.04;100.00;98577.06;4966471;28;20074;-81
2021/12/01 09:00:00;;;;;;;5.50;2.77;;;;;;;3.05;100.00;98566.56;4973798;28;20054;-81
2021/12/01 09:02:27;;;;;;;5.40;2.93;;;;;;;3.09;100.00;98568.19;5032591;23;20437;-84
2021/12/01 09:04:54;;;;;;;5.93;3.40;;;;;;;3.16;100.00;98561.09;4973004;28;20042;-84
2021/12/01 09:07:20;;;;;;;4.73;2.73;;;;;;;3.21;100.00;98556.63;4994540;28;20042;-84
2021/12/01 09:09:48;;;;;;;5.23;3.67;;;;;;;3.28;100.00;98552.97;5001873;28;20388;-84
2021/12/01 09:12:19;;;;;;;5.90;3.63;;;;;;;3.31;100.00;98542.47;4987906;28;20042;-84
2021/12/01 09:14:46;;;;;;;6.37;4.60;;;;;;;3.39;100.00;98548.34;4978024;28;20045;-85
2021/12/01 09:17:13;;;;;;;7.03;4.50;;;;;;;3.49;100.00;98542.88;4992227;28;20165;-86
2021/12/01 09:19:40;;;;;;;7.10;5.03;;;;;;;3.57;100.00;98531.34;4984516;28;20446;-82
2021/12/01 09:22:07;;;;;;;7.43;4.73;;;;;;;3.61;100.00;98521.66;4979516;28;20087;-84
2021/12/01 09:24:34;;;;;;;5.80;4.57;;;;;;;3.74;100.00;98523.06;5000801;28;20057;-82
2021/12/01 09:27:01;;;;;;;7.17;4.83;;;;;;;3.75;100.00;98516.06;4969939;28;20653;-82
2021/12/01 09:29:27;;;;;;;7.03;4.63;;;;;;;3.80;100.00;98506.38;4996307;28;20045;-83
2021/12/01 09:31:55;;;;;;;7.63;6.00;;;;;;;3.95;100.00;98498.97;4987290;28;20046;-82
2021/12/01 09:34:28;;;;;;;7.57;4.83;;;;;;;3.95;100.00;98492.84;4966276;28;20053;-83
2021/12/01 09:36:57;;;;;;;9.57;5.20;;;;;;;4.05;100.00;98490.88;4983479;28;20056;-86
2021/12/01 09:39:25;;;;;;;9.17;5.27;;;;;;;4.17;100.00;98488.72;5002056;28;20053;-83
2021/12/01 09:41:52;;;;;;;8.80;5.07;;;;;;;4.27;100.00;98480.63;4979113;28;20104;-84
2021/12/01 09:44:18;;;;;;;8.07;4.93;;;;;;;4.30;100.00;98465.72;4978077;28;20053;-83
2021/12/01 09:46:45;;;;;;;8.23;4.90;;;;;;;4.41;100.00;98466.25;4991837;28;20134;-87
2021/12/01 09:49:12;;;;;;;6.07;4.53;;;;;;;4.44;100.00;98458.28;5017107;28;20509;-86
2021/12/01 09:51:39;;;;;;;8.83;5.53;;;;;;;4.52;100.00;98450.22;5002986;28;20392;-85
2021/12/01 09:54:05;;;;;;;6.50;4.90;;;;;;;4.66;100.00;98440.19;4981784;28;20034;-85
2021/12/01 09:56:33;;;;;;;7.97;5.00;;;;;;;4.75;100.00;98450.34;4980723;28;20461;-85
2021/12/01 09:59:00;;;;;;;6.63;4.50;;;;;;;4.86;100.00;98436.91;4995482;28;20145;-86
2021/12/01 10:01:28;;;;;;;5.20;4.00;;;;;;;4.84;100.00;98424.78;5003653;28;20052;-83
2021/12/01 10:03:55;;;;;;;6.80;4.37;;;;;;;4.96;100.00;98424.38;4981005;28;20046;-84
2021/12/01 10:06:24;;;;;;;5.60;3.37;;;;;;;4.99;100.00;98432.97;4998089;28;20037;-86
2021/12/01 10:08:53;;;;;;;4.77;3.33;;;;;;;5.06;100.00;98418.78;4966738;28;20045;-84
2021/12/01 10:11:23;;;;;;;5.47;3.67;;;;;;;5.11;100.00;98407.28;5001803;28;20043;-85
2021/12/01 10:13:59;;;;;;;4.90;3.20;;;;;;;5.12;100.00;98402.00;4996632;28;20078;-87
2021/12/01 10:16:28;;;;;;;4.80;2.70;;;;;;;5.16;100.00;98402.78;4958039;28;20092;-84
2021/12/01 10:18:58;;;;;;;4.30;3.27;;;;;;;5.27;100.00;98401.47;4977360;28;20130;-83
2021/12/01 10:21:30;;;;;;;5.43;3.07;;;;;;;5.27;100.00;98400.63;5003955;28;20037;-84
2021/12/01 10:24:19;;;;;;;4.33;2.90;;;;;;;5.25;100.00;98405.91;4994365;28;20099;-85
2021/12/01 10:26:51;;;;;;;3.47;2.70;;;;;;;5.29;100.00;98397.03;4967251;28;20053;-85
2021/12/01 10:29:30;;;;;;;4.63;2.50;;;;;;;5.27;100.00;98392.78;4986056;28;20550;-84
2021/12/01 10:32:07;;;;;;;3.53;2.50;;;;;;;5.31;100.00;98376.06;5009953;28;20038;-87
2021/12/01 10:34:40;;;;;;;4.13;2.70;;;;;;;5.30;100.00;98382.22;4995987;28;20049;-84
2021/12/01 10:37:26;;;;;;;4.37;2.40;;;;;;;5.35;100.00;98372.41;4999008;28;20092;-84
2021/12/01 10:40:15;;;;;;;3.77;2.50;;;;;;;5.42;100.00;98358.19;4976840;28;20046;-85
2021/12/01 10:43:05;;;;;;;3.27;2.47;;;;;;;5.46;100.00;98357.16;4983095;28;20053;-82
2021/12/01 10:45:47;;;;;;;3.40;2.73;;;;;;;5.52;100.00;98364.78;4982992;28;20042;-84
2021/12/01 10:48:23;;;;;;;3.27;2.40;;;;;;;5.53;100.00;98357.78;4988438;28;20046;-85
2021/12/01 10:50:51;;;;;;;2.87;2.40;;;;;;;5.45;100.00;98355.44;4981329;28;20053;-82
2021/12/01 10:53:21;;;;;;;3.63;2.37;;;;;;;5.50;100.00;98357.91;4988539;28;20061;-84
2021/12/01 10:55:56;;;;;;;3.63;2.50;;;;;;;5.53;100.00;98357.78;4994568;28;20054;-84
2021/12/01 10:58:38;;;;;;;4.60;2.80;;;;;;;5.49;100.00;98349.19;5009360;28;20042;-85
2021/12/01 11:01:22;;;;;;;3.85;2.40;;;;;;;5.49;100.00;98354.44;4992684;28;20483;-85
2021/12/01 11:03:51;;;;;;;2.47;2.10;;;;;;;5.44;100.00;98342.41;4976915;28;20067;-86
2021/12/01 11:06:22;;;;;;;2.87;2.03;;;;;;;5.44;100.00;98337.19;4971866;28;20042;-86
2021/12/01 11:08:55;;;;;;;3.83;2.83;;;;;;;5.46;100.00;98336.19;4976748;28;20057;-85
2021/12/01 11:11:24;;;;;;;4.07;3.10;;;;;;;5.46;100.00;98332.72;4964372;28;20042;-87
2021/12/01 11:14:07;;;;;;;3.83;2.50;;;;;;;5.47;100.00;98324.84;4983828;28;20049;-86
2021/12/01 11:16:38;;;;;;;3.53;2.43;;;;;;;5.46;100.00;98312.63;5000696;28;20434;-85
2021/12/01 11:19:05;;;;;;;3.20;2.60;;;;;;;5.49;100.00;98294.22;4984779;28;20046;-87
2021/12/01 11:21:32;;;;;;;2.73;2.30;;;;;;;5.49;100.00;98298.59;4991899;28;20046;-86
2021/12/01 11:24:01;;;;;;;3.23;2.30;;;;;;;5.47;100.00;98284.72;4986789;28;20045;-85
2021/12/01 11:26:30;;;;;;;4.20;2.43;;;;;;;5.51;100.00;98291.53;4966740;28;20046;-85
2021/12/01 11:29:05;;;;;;;3.40;2.70;;;;;;;5.50;100.00;98274.97;5009315;28;20494;-85
2021/12/01 11:31:35;;;;;;;3.20;2.37;;;;;;;5.48;100.00;98268.94;4988244;28;20139;-84
2021/12/01 11:34:07;;;;;;;3.73;2.27;;;;;;;5.51;100.00;98260.94;4999377;28;20048;-85
2021/12/01 11:36:37;;;;;;;3.73;2.30;;;;;;;5.54;100.00;98250.34;4997909;28;20046;-84
2021/12/01 11:39:06;;;;;;;3.63;2.30;;;;;;;5.53;100.00;98255.66;4984823;28;20112;-85
2021/12/01 11:41:36;;;;;;;3.37;2.70;;;;;;;5.55;100.00;98249.47;4998801;28;20515;-87
2021/12/01 11:44:04;;;;;;;4.17;2.60;;;;;;;5.54;100.00;98250.34;4972524;28;20113;-83